sensor_id;sensor_type;location;lat;lon;timestamp;temperature;humidity
64198;SHT31;50512;53.666;9.700;2023-11-19T00:02:21;5.19;99.99
64198;SHT31;50512;53.666;9.700;2023-11-19T00:04:47;5.19;99.99
64198;SHT31;50512;53.666;9.700;2023-11-19T00:07:14;5.20;99.99
64198;SHT31;50512;53.666;9.700;2023-11-19T00:09:42;5.20;99.99
64198;SHT31;50512;53.666;9.700;2023-11-19T00:12:09;5.23;99.99
64198;SHT31;50512;53.666;9.700;2023-11-19T00:14:35;5.25;99.99
64198;SHT31;50512;53.666;9.700;2023-11-19T00:17:02;5.23;99.99
64198;SHT31;50512;53.666;9.700;2023-11-19T00:19:29;5.25;99.99
64198;SHT31;50512;53.666;9.700;2023-11-19T00:21:55;5.25;99.99
64198;SHT31;50512;53.666;9.700;2023-11-19T00:24:22;5.22;99.99
64198;SHT31;50512;53.666;9.700;2023-11-19T00:26:50;5.26;99.99
64198;SHT31;50512;53.666;9.700;2023-11-19T00:29:16;5.28;99.99
64198;SHT31;50512;53.666;9.700;2023-11-19T00:31:45;5.29;99.99
64198;SHT31;50512;53.666;9.700;2023-11-19T00:34:12;5.28;99.99
64198;SHT31;50512;53.666;9.700;2023-11-19T00:36:38;5.30;99.99
64198;SHT31;50512;53.666;9.700;2023-11-19T00:39:05;5.32;99.99
64198;SHT31;50512;53.666;9.700;2023-11-19T00:41:31;5.35;99.99
64198;SHT31;50512;53.666;9.700;2023-11-19T00:43:59;5.33;99.99
64198;SHT31;50512;53.666;9.700;2023-11-19T00:46:25;5.30;99.99
64198;SHT31;50512;53.666;9.700;2023-11-19T00:48:53;5.35;99.99
64198;SHT31;50512;53.666;9.700;2023-11-19T00:51:20;5.35;99.99
64198;SHT31;50512;53.666;9.700;2023-11-19T00:53:46;5.37;99.99
64198;SHT31;50512;53.666;9.700;2023-11-19T00:56:12;5.35;99.99
64198;SHT31;50512;53.666;9.700;2023-11-19T00:58:39;5.39;99.99
64198;SHT31;50512;53.666;9.700;2023-11-19T01:01:07;5.37;99.99
64198;SHT31;50512;53.666;9.700;2023-11-19T01:03:34;5.39;99.99
64198;SHT31;50512;53.666;9.700;2023-11-19T01:06:00;5.39;99.99
64198;SHT31;50512;53.666;9.700;2023-11-19T01:08:27;5.40;99.99
64198;SHT31;50512;53.666;9.700;2023-11-19T01:10:54;5.40;99.99
64198;SHT31;50512;53.666;9.700;2023-11-19T01:13:20;5.37;99.99
64198;SHT31;50512;53.666;9.700;2023-11-19T01:15:47;5.40;99.99
64198;SHT31;50512;53.666;9.700;2023-11-19T01:18:15;5.40;99.99
64198;SHT31;50512;53.666;9.700;2023-11-19T01:20:42;5.42;99.99
64198;SHT31;50512;53.666;9.700;2023-11-19T01:23:08;5.39;99.99
64198;SHT31;50512;53.666;9.700;2023-11-19T01:25:34;5.42;99.99
64198;SHT31;50512;53.666;9.700;2023-11-19T01:28:03;5.42;99.99
64198;SHT31;50512;53.666;9.700;2023-11-19T01:30:30;5.43;99.99
64198;SHT31;50512;53.666;9.700;2023-11-19T01:32:56;5.44;99.99
64198;SHT31;50512;53.666;9.700;2023-11-19T01:35:24;5.48;99.99
64198;SHT31;50512;53.666;9.700;2023-11-19T01:37:51;5.46;99.99
64198;SHT31;50512;53.666;9.700;2023-11-19T01:40:20;5.50;99.99
64198;SHT31;50512;53.666;9.700;2023-11-19T01:42:46;5.48;99.99
64198;SHT31;50512;53.666;9.700;2023-11-19T01:45:22;5.48;99.99
64198;SHT31;50512;53.666;9.700;2023-11-19T01:47:52;5.48;99.99
64198;SHT31;50512;53.666;9.700;2023-11-19T01:50:19;5.50;99.99
64198;SHT31;50512;53.666;9.700;2023-11-19T01:52:48;5.50;99.99
64198;SHT31;50512;53.666;9.700;2023-11-19T01:55:15;5.48;99.99
64198;SHT31;50512;53.666;9.700;2023-11-19T01:57:41;5.53;99.99
64198;SHT31;50512;53.666;9.700;2023-11-19T02:00:09;5.54;99.99
64198;SHT31;50512;53.666;9.700;2023-11-19T02:02:37;5.58;99.99
64198;SHT31;50512;53.666;9.700;2023-11-19T02:05:05;5.57;99.99
64198;SHT31;50512;53.666;9.700;2023-11-19T02:07:31;5.58;99.99
64198;SHT31;50512;53.666;9.700;2023-11-19T02:09:59;5.60;99.99
64198;SHT31;50512;53.666;9.700;2023-11-19T02:12:27;5.63;99.99
64198;SHT31;50512;53.666;9.700;2023-11-19T02:14:54;5.64;99.99
64198;SHT31;50512;53.666;9.700;2023-11-19T02:17:27;5.67;99.99
64198;SHT31;50512;53.666;9.700;2023-11-19T02:19:53;5.70;99.99
64198;SHT31;50512;53.666;9.700;2023-11-19T02:22:20;5.70;99.99
64198;SHT31;50512;53.666;9.700;2023-11-19T02:24:49;5.70;99.99
64198;SHT31;50512;53.666;9.700;2023-11-19T02:27:25;5.73;99.99
64198;SHT31;50512;53.666;9.700;2023-11-19T02:29:56;5.78;99.99
64198;SHT31;50512;53.666;9.700;2023-11-19T02:32:23;5.77;99.99
64198;SHT31;50512;53.666;9.700;2023-11-19T02:34:50;5.77;99.99
64198;SHT31;50512;53.666;9.700;2023-11-19T02:37:18;5.79;99.99
64198;SHT31;50512;53.666;9.700;2023-11-19T02:39:45;5.84;99.99
64198;SHT31;50512;53.666;9.700;2023-11-19T02:42:11;5.84;99.99
64198;SHT31;50512;53.666;9.700;2023-11-19T02:44:43;5.84;99.99
64198;SHT31;50512;53.666;9.700;2023-11-19T02:47:11;5.87;99.99
64198;SHT31;50512;53.666;9.700;2023-11-19T02:49:37;5.90;99.99
64198;SHT31;50512;53.666;9.700;2023-11-19T02:52:05;5.94;99.99
64198;SHT31;50512;53.666;9.700;2023-11-19T02:54:32;5.99;99.99
64198;SHT31;50512;53.666;9.700;2023-11-19T02:57:00;6.03;99.99
64198;SHT31;50512;53.666;9.700;2023-11-19T02:59:28;7.36;99.99
64198;SHT31;50512;53.666;9.700;2023-11-19T03:02:04;7.68;99.99
64198;SHT31;50512;53.666;9.700;2023-11-19T03:04:33;6.77;99.99
64198;SHT31;50512;53.666;9.700;2023-11-19T03:06:59;6.46;99.99
64198;SHT31;50512;53.666;9.700;2023-11-19T03:09:26;6.37;99.99
64198;SHT31;50512;53.666;9.700;2023-11-19T03:11:53;6.37;99.99
64198;SHT31;50512;53.666;9.700;2023-11-19T03:14:19;6.40;99.99
64198;SHT31;50512;53.666;9.700;2023-11-19T03:16:48;6.43;99.99
64198;SHT31;50512;53.666;9.700;2023-11-19T03:19:14;6.51;99.99
64198;SHT31;50512;53.666;9.700;2023-11-19T03:21:42;6.53;99.99
64198;SHT31;50512;53.666;9.700;2023-11-19T03:24:10;6.60;99.99
64198;SHT31;50512;53.666;9.700;2023-11-19T03:26:36;6.66;99.99
64198;SHT31;50512;53.666;9.700;2023-11-19T03:29:03;6.71;99.99
64198;SHT31;50512;53.666;9.700;2023-11-19T03:31:30;6.74;99.99
64198;SHT31;50512;53.666;9.700;2023-11-19T03:33:56;6.77;99.99
64198;SHT31;50512;53.666;9.700;2023-11-19T03:36:22;6.84;99.99
64198;SHT31;50512;53.666;9.700;2023-11-19T03:38:50;6.92;99.99
64198;SHT31;50512;53.666;9.700;2023-11-19T03:41:17;6.91;99.99
64198;SHT31;50512;53.666;9.700;2023-11-19T03:43:44;6.95;99.99
64198;SHT31;50512;53.666;9.700;2023-11-19T03:46:18;7.02;99.99
64198;SHT31;50512;53.666;9.700;2023-11-19T03:48:44;7.06;99.99
64198;SHT31;50512;53.666;9.700;2023-11-19T03:51:11;7.06;99.99
64198;SHT31;50512;53.666;9.700;2023-11-19T03:53:41;7.11;99.99
64198;SHT31;50512;53.666;9.700;2023-11-19T03:56:09;7.15;99.99
64198;SHT31;50512;53.666;9.700;2023-11-19T03:58:36;7.19;99.99
64198;SHT31;50512;53.666;9.700;2023-11-19T04:01:03;7.26;99.99
64198;SHT31;50512;53.666;9.700;2023-11-19T04:03:30;7.27;99.99
64198;SHT31;50512;53.666;9.700;2023-11-19T04:05:56;7.27;99.99
64198;SHT31;50512;53.666;9.700;2023-11-19T04:08:24;7.29;99.99
64198;SHT31;50512;53.666;9.700;2023-11-19T04:10:50;7.32;99.99
64198;SHT31;50512;53.666;9.700;2023-11-19T04:13:18;7.37;99.99
64198;SHT31;50512;53.666;9.700;2023-11-19T04:15:45;7.42;99.99
64198;SHT31;50512;53.666;9.700;2023-11-19T04:18:12;7.43;99.99
64198;SHT31;50512;53.666;9.700;2023-11-19T04:20:38;7.51;99.99
64198;SHT31;50512;53.666;9.700;2023-11-19T04:23:07;7.53;99.99
64198;SHT31;50512;53.666;9.700;2023-11-19T04:25:35;7.61;99.99
64198;SHT31;50512;53.666;9.700;2023-11-19T04:28:01;7.64;99.99
64198;SHT31;50512;53.666;9.700;2023-11-19T04:30:29;7.71;99.99
64198;SHT31;50512;53.666;9.700;2023-11-19T04:32:57;7.68;99.99
64198;SHT31;50512;53.666;9.700;2023-11-19T04:35:23;7.77;99.99
64198;SHT31;50512;53.666;9.700;2023-11-19T04:37:51;7.88;99.99
64198;SHT31;50512;53.666;9.700;2023-11-19T04:40:17;7.96;99.99
64198;SHT31;50512;53.666;9.700;2023-11-19T04:42:44;8.05;99.99
64198;SHT31;50512;53.666;9.700;2023-11-19T04:45:11;8.10;99.99
64198;SHT31;50512;53.666;9.700;2023-11-19T04:47:38;8.26;99.99
64198;SHT31;50512;53.666;9.700;2023-11-19T04:50:06;8.29;99.99
64198;SHT31;50512;53.666;9.700;2023-11-19T04:52:37;8.50;99.99
64198;SHT31;50512;53.666;9.700;2023-11-19T04:55:04;8.56;99.99
64198;SHT31;50512;53.666;9.700;2023-11-19T04:57:30;8.65;99.99
64198;SHT31;50512;53.666;9.700;2023-11-19T04:59:57;8.72;99.99
64198;SHT31;50512;53.666;9.700;2023-11-19T05:02:24;8.89;99.99
64198;SHT31;50512;53.666;9.700;2023-11-19T05:04:52;8.93;99.99
64198;SHT31;50512;53.666;9.700;2023-11-19T05:07:18;9.04;99.99
64198;SHT31;50512;53.666;9.700;2023-11-19T05:09:45;9.11;99.99
64198;SHT31;50512;53.666;9.700;2023-11-19T05:12:11;9.26;99.99
64198;SHT31;50512;53.666;9.700;2023-11-19T05:14:38;9.27;99.99
64198;SHT31;50512;53.666;9.700;2023-11-19T05:17:04;9.43;99.99
64198;SHT31;50512;53.666;9.700;2023-11-19T05:19:30;9.47;99.99
64198;SHT31;50512;53.666;9.700;2023-11-19T05:21:58;9.51;99.99
64198;SHT31;50512;53.666;9.700;2023-11-19T05:24:25;9.58;99.99
64198;SHT31;50512;53.666;9.700;2023-11-19T05:26:51;9.58;99.99
64198;SHT31;50512;53.666;9.700;2023-11-19T05:29:18;9.75;99.99
64198;SHT31;50512;53.666;9.700;2023-11-19T05:31:45;9.78;99.99
64198;SHT31;50512;53.666;9.700;2023-11-19T05:34:12;9.78;99.99
64198;SHT31;50512;53.666;9.700;2023-11-19T05:36:40;9.88;99.99
64198;SHT31;50512;53.666;9.700;2023-11-19T05:39:07;9.87;99.99
64198;SHT31;50512;53.666;9.700;2023-11-19T05:41:36;9.91;99.99
64198;SHT31;50512;53.666;9.700;2023-11-19T05:44:03;9.94;99.99
64198;SHT31;50512;53.666;9.700;2023-11-19T05:46:29;9.97;99.99
64198;SHT31;50512;53.666;9.700;2023-11-19T05:48:55;9.98;99.99
64198;SHT31;50512;53.666;9.700;2023-11-19T05:51:22;10.03;99.99
64198;SHT31;50512;53.666;9.700;2023-11-19T05:53:49;10.15;99.99
64198;SHT31;50512;53.666;9.700;2023-11-19T05:56:17;10.25;99.99
64198;SHT31;50512;53.666;9.700;2023-11-19T05:58:46;10.20;99.99
64198;SHT31;50512;53.666;9.700;2023-11-19T06:01:13;10.22;99.99
64198;SHT31;50512;53.666;9.700;2023-11-19T06:03:39;10.28;99.99
64198;SHT31;50512;53.666;9.700;2023-11-19T06:06:08;10.25;99.99
64198;SHT31;50512;53.666;9.700;2023-11-19T06:08:35;10.23;99.99
64198;SHT31;50512;53.666;9.700;2023-11-19T06:11:03;10.36;99.99
64198;SHT31;50512;53.666;9.700;2023-11-19T06:13:30;10.35;99.99
64198;SHT31;50512;53.666;9.700;2023-11-19T06:15:57;10.35;99.99
64198;SHT31;50512;53.666;9.700;2023-11-19T06:18:23;10.46;99.99
64198;SHT31;50512;53.666;9.700;2023-11-19T06:20:50;10.49;99.99
64198;SHT31;50512;53.666;9.700;2023-11-19T06:23:16;10.54;99.99
64198;SHT31;50512;53.666;9.700;2023-11-19T06:25:43;10.63;99.99
64198;SHT31;50512;53.666;9.700;2023-11-19T06:28:09;10.70;99.99
64198;SHT31;50512;53.666;9.700;2023-11-19T06:30:37;10.74;99.99
64198;SHT31;50512;53.666;9.700;2023-11-19T06:33:04;10.73;99.99
64198;SHT31;50512;53.666;9.700;2023-11-19T06:35:30;10.74;99.99
64198;SHT31;50512;53.666;9.700;2023-11-19T06:38:02;10.81;99.99
64198;SHT31;50512;53.666;9.700;2023-11-19T06:40:29;10.88;99.99
64198;SHT31;50512;53.666;9.700;2023-11-19T06:42:56;10.92;99.99
64198;SHT31;50512;53.666;9.700;2023-11-19T06:45:22;10.91;99.99
64198;SHT31;50512;53.666;9.700;2023-11-19T06:47:50;10.84;99.99
64198;SHT31;50512;53.666;9.700;2023-11-19T06:50:16;10.84;99.99
64198;SHT31;50512;53.666;9.700;2023-11-19T06:52:44;10.87;99.99
64198;SHT31;50512;53.666;9.700;2023-11-19T06:55:11;10.87;99.99
64198;SHT31;50512;53.666;9.700;2023-11-19T06:57:37;10.81;99.99
64198;SHT31;50512;53.666;9.700;2023-11-19T07:00:05;10.91;99.99
64198;SHT31;50512;53.666;9.700;2023-11-19T07:02:33;11.01;99.99
64198;SHT31;50512;53.666;9.700;2023-11-19T07:05:01;11.02;99.99
64198;SHT31;50512;53.666;9.700;2023-11-19T07:07:30;10.94;99.99
64198;SHT31;50512;53.666;9.700;2023-11-19T07:09:56;10.98;99.99
64198;SHT31;50512;53.666;9.700;2023-11-19T07:12:23;10.87;99.99
64198;SHT31;50512;53.666;9.700;2023-11-19T07:14:51;10.78;99.99
64198;SHT31;50512;53.666;9.700;2023-11-19T07:17:18;10.92;99.99
64198;SHT31;50512;53.666;9.700;2023-11-19T07:19:45;10.81;99.99
64198;SHT31;50512;53.666;9.700;2023-11-19T07:22:13;10.84;99.99
64198;SHT31;50512;53.666;9.700;2023-11-19T07:24:40;10.91;99.99
64198;SHT31;50512;53.666;9.700;2023-11-19T07:27:06;10.97;99.99
64198;SHT31;50512;53.666;9.700;2023-11-19T07:29:34;10.97;99.99
64198;SHT31;50512;53.666;9.700;2023-11-19T07:32:00;10.97;99.99
64198;SHT31;50512;53.666;9.700;2023-11-19T07:34:27;11.19;99.99
64198;SHT31;50512;53.666;9.700;2023-11-19T07:36:54;11.14;99.99
64198;SHT31;50512;53.666;9.700;2023-11-19T07:39:23;11.07;99.99
64198;SHT31;50512;53.666;9.700;2023-11-19T07:41:50;11.05;99.99
64198;SHT31;50512;53.666;9.700;2023-11-19T07:44:16;11.04;99.99
64198;SHT31;50512;53.666;9.700;2023-11-19T07:46:43;11.01;99.99
64198;SHT31;50512;53.666;9.700;2023-11-19T07:49:10;11.07;99.99
64198;SHT31;50512;53.666;9.700;2023-11-19T07:51:36;11.07;99.99
64198;SHT31;50512;53.666;9.700;2023-11-19T07:54:03;11.07;99.99
64198;SHT31;50512;53.666;9.700;2023-11-19T07:56:31;11.05;99.99
64198;SHT31;50512;53.666;9.700;2023-11-19T07:58:59;11.04;99.99
64198;SHT31;50512;53.666;9.700;2023-11-19T08:01:26;11.08;99.99
64198;SHT31;50512;53.666;9.700;2023-11-19T08:03:52;11.07;99.99
64198;SHT31;50512;53.666;9.700;2023-11-19T08:06:19;11.11;99.99
64198;SHT31;50512;53.666;9.700;2023-11-19T08:08:45;11.14;99.99
64198;SHT31;50512;53.666;9.700;2023-11-19T08:11:13;11.18;99.99
64198;SHT31;50512;53.666;9.700;2023-11-19T08:13:41;11.20;99.99
64198;SHT31;50512;53.666;9.700;2023-11-19T08:16:08;11.19;99.99
64198;SHT31;50512;53.666;9.700;2023-11-19T08:18:34;11.15;99.99
64198;SHT31;50512;53.666;9.700;2023-11-19T08:21:01;11.20;99.99
64198;SHT31;50512;53.666;9.700;2023-11-19T08:23:30;11.23;99.99
64198;SHT31;50512;53.666;9.700;2023-11-19T08:25:56;11.26;99.99
64198;SHT31;50512;53.666;9.700;2023-11-19T08:28:22;11.23;99.99
64198;SHT31;50512;53.666;9.700;2023-11-19T08:30:50;11.20;99.99
64198;SHT31;50512;53.666;9.700;2023-11-19T08:33:17;11.25;99.99
64198;SHT31;50512;53.666;9.700;2023-11-19T08:35:43;11.22;99.99
64198;SHT31;50512;53.666;9.700;2023-11-19T08:38:10;11.30;99.99
64198;SHT31;50512;53.666;9.700;2023-11-19T08:40:36;11.36;99.99
64198;SHT31;50512;53.666;9.700;2023-11-19T08:43:04;11.42;99.99
64198;SHT31;50512;53.666;9.700;2023-11-19T08:45:31;11.33;99.99
64198;SHT31;50512;53.666;9.700;2023-11-19T08:47:59;11.33;99.99
64198;SHT31;50512;53.666;9.700;2023-11-19T08:50:26;11.29;99.99
64198;SHT31;50512;53.666;9.700;2023-11-19T08:52:52;11.29;99.99
64198;SHT31;50512;53.666;9.700;2023-11-19T08:55:18;11.32;99.99
64198;SHT31;50512;53.666;9.700;2023-11-19T08:57:45;11.32;99.99
64198;SHT31;50512;53.666;9.700;2023-11-19T09:00:12;11.36;99.99
64198;SHT31;50512;53.666;9.700;2023-11-19T09:02:39;11.44;99.99
64198;SHT31;50512;53.666;9.700;2023-11-19T09:05:08;11.53;99.99
64198;SHT31;50512;53.666;9.700;2023-11-19T09:07:34;11.60;99.99
64198;SHT31;50512;53.666;9.700;2023-11-19T09:10:01;11.62;99.99
64198;SHT31;50512;53.666;9.700;2023-11-19T09:12:27;11.54;99.99
64198;SHT31;50512;53.666;9.700;2023-11-19T09:14:54;11.52;99.99
64198;SHT31;50512;53.666;9.700;2023-11-19T09:17:20;11.52;99.99
64198;SHT31;50512;53.666;9.700;2023-11-19T09:19:46;11.49;99.99
64198;SHT31;50512;53.666;9.700;2023-11-19T09:22:14;11.47;99.99
64198;SHT31;50512;53.666;9.700;2023-11-19T09:24:41;11.44;99.99
64198;SHT31;50512;53.666;9.700;2023-11-19T09:27:09;11.44;99.99
64198;SHT31;50512;53.666;9.700;2023-11-19T09:29:35;11.44;99.99
64198;SHT31;50512;53.666;9.700;2023-11-19T09:32:02;11.46;99.99
64198;SHT31;50512;53.666;9.700;2023-11-19T09:34:28;11.47;99.99
64198;SHT31;50512;53.666;9.700;2023-11-19T09:36:55;11.56;99.72
64198;SHT31;50512;53.666;9.700;2023-11-19T09:39:23;11.53;99.99
64198;SHT31;50512;53.666;9.700;2023-11-19T09:41:51;11.57;99.57
64198;SHT31;50512;53.666;9.700;2023-11-19T09:44:17;11.69;99.55
64198;SHT31;50512;53.666;9.700;2023-11-19T09:46:44;11.78;98.71
64198;SHT31;50512;53.666;9.700;2023-11-19T09:49:11;11.90;98.82
64198;SHT31;50512;53.666;9.700;2023-11-19T09:51:38;11.98;98.22
64198;SHT31;50512;53.666;9.700;2023-11-19T09:54:05;12.06;98.44
64198;SHT31;50512;53.666;9.700;2023-11-19T09:56:35;12.06;98.31
64198;SHT31;50512;53.666;9.700;2023-11-19T09:59:03;12.04;97.49
64198;SHT31;50512;53.666;9.700;2023-11-19T10:01:29;11.99;97.02
64198;SHT31;50512;53.666;9.700;2023-11-19T10:03:57;11.92;97.63
64198;SHT31;50512;53.666;9.700;2023-11-19T10:06:24;11.84;98.50
64198;SHT31;50512;53.666;9.700;2023-11-19T10:08:52;11.70;98.58
64198;SHT31;50512;53.666;9.700;2023-11-19T10:11:18;11.57;97.81
64198;SHT31;50512;53.666;9.700;2023-11-19T10:13:46;11.62;98.58
64198;SHT31;50512;53.666;9.700;2023-11-19T10:16:13;11.67;99.16
64198;SHT31;50512;53.666;9.700;2023-11-19T10:18:44;11.66;99.17
64198;SHT31;50512;53.666;9.700;2023-11-19T10:21:12;11.69;99.30
64198;SHT31;50512;53.666;9.700;2023-11-19T10:23:48;11.67;98.83
64198;SHT31;50512;53.666;9.700;2023-11-19T10:26:16;11.69;98.39
64198;SHT31;50512;53.666;9.700;2023-11-19T10:28:43;11.74;98.73
64198;SHT31;50512;53.666;9.700;2023-11-19T10:31:12;11.66;98.64
64198;SHT31;50512;53.666;9.700;2023-11-19T10:33:39;11.67;98.89
64198;SHT31;50512;53.666;9.700;2023-11-19T10:36:06;11.59;99.05
64198;SHT31;50512;53.666;9.700;2023-11-19T10:38:33;11.53;98.53
64198;SHT31;50512;53.666;9.700;2023-11-19T10:41:00;11.52;98.58
64198;SHT31;50512;53.666;9.700;2023-11-19T10:43:26;11.49;99.25
64198;SHT31;50512;53.666;9.700;2023-11-19T10:45:53;11.40;99.48
64198;SHT31;50512;53.666;9.700;2023-11-19T10:48:20;11.40;99.80
64198;SHT31;50512;53.666;9.700;2023-11-19T10:50:53;11.37;99.58
64198;SHT31;50512;53.666;9.700;2023-11-19T10:53:21;11.36;99.94
64198;SHT31;50512;53.666;9.700;2023-11-19T10:55:51;11.32;99.96
64198;SHT31;50512;53.666;9.700;2023-11-19T10:58:18;11.29;99.99
64198;SHT31;50512;53.666;9.700;2023-11-19T11:00:48;11.30;99.99
64198;SHT31;50512;53.666;9.700;2023-11-19T11:03:18;11.36;99.99
64198;SHT31;50512;53.666;9.700;2023-11-19T11:05:48;11.42;99.99
64198;SHT31;50512;53.666;9.700;2023-11-19T11:08:15;11.42;99.99
64198;SHT31;50512;53.666;9.700;2023-11-19T11:10:44;11.42;99.99
64198;SHT31;50512;53.666;9.700;2023-11-19T11:13:11;11.57;99.99
64198;SHT31;50512;53.666;9.700;2023-11-19T11:15:39;11.75;99.99
64198;SHT31;50512;53.666;9.700;2023-11-19T11:18:08;11.91;99.99
64198;SHT31;50512;53.666;9.700;2023-11-19T11:20:35;12.17;99.80
64198;SHT31;50512;53.666;9.700;2023-11-19T11:23:33;12.40;98.66
64198;SHT31;50512;53.666;9.700;2023-11-19T11:26:15;12.22;96.94
64198;SHT31;50512;53.666;9.700;2023-11-19T11:28:51;12.15;97.78
64198;SHT31;50512;53.666;9.700;2023-11-19T11:31:32;12.04;98.12
64198;SHT31;50512;53.666;9.700;2023-11-19T11:34:12;11.91;98.76
64198;SHT31;50512;53.666;9.700;2023-11-19T11:36:49;11.77;99.23
64198;SHT31;50512;53.666;9.700;2023-11-19T11:39:22;11.60;99.86
64198;SHT31;50512;53.666;9.700;2023-11-19T11:42:34;11.52;99.99
64198;SHT31;50512;53.666;9.700;2023-11-19T11:45:02;11.44;99.99
64198;SHT31;50512;53.666;9.700;2023-11-19T11:48:04;11.40;99.99
64198;SHT31;50512;53.666;9.700;2023-11-19T11:50:34;11.37;99.99
64198;SHT31;50512;53.666;9.700;2023-11-19T11:53:16;11.40;99.99
64198;SHT31;50512;53.666;9.700;2023-11-19T11:55:57;11.40;99.99
64198;SHT31;50512;53.666;9.700;2023-11-19T11:58:32;11.42;99.99
64198;SHT31;50512;53.666;9.700;2023-11-19T12:01:02;11.43;99.99
64198;SHT31;50512;53.666;9.700;2023-11-19T12:03:31;11.50;99.99
64198;SHT31;50512;53.666;9.700;2023-11-19T12:05:58;11.66;99.99
64198;SHT31;50512;53.666;9.700;2023-11-19T12:08:27;11.70;99.99
64198;SHT31;50512;53.666;9.700;2023-11-19T12:10:56;11.71;99.99
64198;SHT31;50512;53.666;9.700;2023-11-19T12:13:56;11.71;99.99
64198;SHT31;50512;53.666;9.700;2023-11-19T12:16:24;11.74;99.99
64198;SHT31;50512;53.666;9.700;2023-11-19T12:18:53;11.74;99.99
64198;SHT31;50512;53.666;9.700;2023-11-19T12:21:29;11.77;99.54
64198;SHT31;50512;53.666;9.700;2023-11-19T12:23:58;11.74;99.99
64198;SHT31;50512;53.666;9.700;2023-11-19T12:26:37;11.75;99.99
64198;SHT31;50512;53.666;9.700;2023-11-19T12:29:04;11.74;99.13
64198;SHT31;50512;53.666;9.700;2023-11-19T12:31:32;11.71;99.75
64198;SHT31;50512;53.666;9.700;2023-11-19T12:33:57;11.71;99.75
64198;SHT31;50512;53.666;9.700;2023-11-19T12:36:24;11.69;99.05
64198;SHT31;50512;53.666;9.700;2023-11-19T12:38:51;11.69;99.75
64198;SHT31;50512;53.666;9.700;2023-11-19T12:41:17;11.67;99.57
64198;SHT31;50512;53.666;9.700;2023-11-19T12:43:49;11.69;99.78
64198;SHT31;50512;53.666;9.700;2023-11-19T12:46:19;11.67;99.96
64198;SHT31;50512;53.666;9.700;2023-11-19T12:48:46;11.59;99.92
64198;SHT31;50512;53.666;9.700;2023-11-19T12:51:12;11.59;99.82
64198;SHT31;50512;53.666;9.700;2023-11-19T12:53:47;11.62;99.82
64198;SHT31;50512;53.666;9.700;2023-11-19T12:56:15;11.64;99.99
64198;SHT31;50512;53.666;9.700;2023-11-19T12:58:41;11.66;99.99
64198;SHT31;50512;53.666;9.700;2023-11-19T13:01:09;11.67;99.99
64198;SHT31;50512;53.666;9.700;2023-11-19T13:03:36;11.59;99.99
64198;SHT31;50512;53.666;9.700;2023-11-19T13:06:05;11.59;99.99
64198;SHT31;50512;53.666;9.700;2023-11-19T13:08:36;11.56;99.94
64198;SHT31;50512;53.666;9.700;2023-11-19T13:11:04;11.59;99.99
64198;SHT31;50512;53.666;9.700;2023-11-19T13:13:31;11.64;99.99
64198;SHT31;50512;53.666;9.700;2023-11-19T13:16:02;11.69;99.99
64198;SHT31;50512;53.666;9.700;2023-11-19T13:18:30;11.70;99.99
64198;SHT31;50512;53.666;9.700;2023-11-19T13:20:57;11.66;99.65
64198;SHT31;50512;53.666;9.700;2023-11-19T13:23:23;11.63;99.11
64198;SHT31;50512;53.666;9.700;2023-11-19T13:25:50;11.54;99.73
64198;SHT31;50512;53.666;9.700;2023-11-19T13:28:16;11.54;99.67
64198;SHT31;50512;53.666;9.700;2023-11-19T13:30:43;11.52;99.75
64198;SHT31;50512;53.666;9.700;2023-11-19T13:33:09;11.50;99.71
64198;SHT31;50512;53.666;9.700;2023-11-19T13:35:38;11.53;99.75
64198;SHT31;50512;53.666;9.700;2023-11-19T13:38:05;11.59;99.14
64198;SHT31;50512;53.666;9.700;2023-11-19T13:40:33;11.62;99.24
64198;SHT31;50512;53.666;9.700;2023-11-19T13:43:00;11.70;98.48
64198;SHT31;50512;53.666;9.700;2023-11-19T13:45:26;11.70;98.67
64198;SHT31;50512;53.666;9.700;2023-11-19T13:47:53;11.69;97.79
64198;SHT31;50512;53.666;9.700;2023-11-19T13:50:19;11.71;97.58
64198;SHT31;50512;53.666;9.700;2023-11-19T13:52:49;11.71;98.36
64198;SHT31;50512;53.666;9.700;2023-11-19T13:55:15;11.64;98.53
64198;SHT31;50512;53.666;9.700;2023-11-19T13:57:43;11.63;98.82
64198;SHT31;50512;53.666;9.700;2023-11-19T14:00:11;11.56;99.44
64198;SHT31;50512;53.666;9.700;2023-11-19T14:02:38;11.42;99.99
64198;SHT31;50512;53.666;9.700;2023-11-19T14:05:05;11.35;99.99
64198;SHT31;50512;53.666;9.700;2023-11-19T14:07:32;11.25;99.99
64198;SHT31;50512;53.666;9.700;2023-11-19T14:10:00;11.14;99.99
64198;SHT31;50512;53.666;9.700;2023-11-19T14:12:27;11.08;99.99
64198;SHT31;50512;53.666;9.700;2023-11-19T14:14:53;10.81;98.72
64198;SHT31;50512;53.666;9.700;2023-11-19T14:17:20;10.77;99.30
64198;SHT31;50512;53.666;9.700;2023-11-19T14:19:46;10.54;98.85
64198;SHT31;50512;53.666;9.700;2023-11-19T14:22:13;10.36;99.01
64198;SHT31;50512;53.666;9.700;2023-11-19T14:24:39;10.20;98.94
64198;SHT31;50512;53.666;9.700;2023-11-19T14:27:09;10.12;98.69
64198;SHT31;50512;53.666;9.700;2023-11-19T14:29:35;10.10;99.65
64198;SHT31;50512;53.666;9.700;2023-11-19T14:32:02;9.97;99.97
64198;SHT31;50512;53.666;9.700;2023-11-19T14:34:29;9.87;99.99
64198;SHT31;50512;53.666;9.700;2023-11-19T14:36:56;9.84;99.99
64198;SHT31;50512;53.666;9.700;2023-11-19T14:39:22;9.81;99.99
64198;SHT31;50512;53.666;9.700;2023-11-19T14:41:48;9.80;99.99
64198;SHT31;50512;53.666;9.700;2023-11-19T14:44:17;9.80;99.99
64198;SHT31;50512;53.666;9.700;2023-11-19T14:46:45;9.81;99.99
64198;SHT31;50512;53.666;9.700;2023-11-19T14:49:11;9.84;99.99
64198;SHT31;50512;53.666;9.700;2023-11-19T14:51:39;9.82;99.99
64198;SHT31;50512;53.666;9.700;2023-11-19T14:54:05;9.71;99.99
64198;SHT31;50512;53.666;9.700;2023-11-19T14:56:32;9.65;99.99
64198;SHT31;50512;53.666;9.700;2023-11-19T14:58:58;9.70;99.99
64198;SHT31;50512;53.666;9.700;2023-11-19T15:01:26;9.67;99.99
64198;SHT31;50512;53.666;9.700;2023-11-19T15:03:54;9.67;99.99
64198;SHT31;50512;53.666;9.700;2023-11-19T15:06:23;9.58;99.99
64198;SHT31;50512;53.666;9.700;2023-11-19T15:08:49;9.64;99.99
64198;SHT31;50512;53.666;9.700;2023-11-19T15:11:15;9.71;99.99
64198;SHT31;50512;53.666;9.700;2023-11-19T15:13:42;9.74;99.99
64198;SHT31;50512;53.666;9.700;2023-11-19T15:16:08;9.77;99.99
64198;SHT31;50512;53.666;9.700;2023-11-19T15:18:38;9.73;99.99
64198;SHT31;50512;53.666;9.700;2023-11-19T15:21:05;9.64;99.99
64198;SHT31;50512;53.666;9.700;2023-11-19T15:23:31;9.89;99.99
64198;SHT31;50512;53.666;9.700;2023-11-19T15:25:58;9.95;99.99
64198;SHT31;50512;53.666;9.700;2023-11-19T15:28:24;9.95;99.99
64198;SHT31;50512;53.666;9.700;2023-11-19T15:30:51;9.84;99.99
64198;SHT31;50512;53.666;9.700;2023-11-19T15:33:17;9.73;99.99
64198;SHT31;50512;53.666;9.700;2023-11-19T15:35:45;9.65;99.99
64198;SHT31;50512;53.666;9.700;2023-11-19T15:38:12;9.64;99.99
64198;SHT31;50512;53.666;9.700;2023-11-19T15:40:38;9.71;99.99
64198;SHT31;50512;53.666;9.700;2023-11-19T15:43:05;9.74;99.99